sensor_id;sensor_type;location;lat;lon;timestamp;P1;durP1;ratioP1;P2;durP2;ratioP2
5553;SDS011;2800;49.528;8.666;2023-09-19T00:00:36;6.70;;;1.70;;
5553;SDS011;2800;49.528;8.666;2023-09-19T00:03:02;6.03;;;1.90;;
5553;SDS011;2800;49.528;8.666;2023-09-19T00:05:29;7.10;;;1.90;;
5553;SDS011;2800;49.528;8.666;2023-09-19T00:07:59;6.57;;;1.80;;
5553;SDS011;2800;49.528;8.666;2023-09-19T00:10:26;8.33;;;1.90;;
5553;SDS011;2800;49.528;8.666;2023-09-19T00:12:56;7.70;;;2.20;;
5553;SDS011;2800;49.528;8.666;2023-09-19T00:15:26;4.80;;;1.73;;
5553;SDS011;2800;49.528;8.666;2023-09-19T00:17:54;6.53;;;2.20;;
5553;SDS011;2800;49.528;8.666;2023-09-19T00:20:20;6.10;;;1.70;;
5553;SDS011;2800;49.528;8.666;2023-09-19T00:22:48;7.10;;;1.63;;
5553;SDS011;2800;49.528;8.666;2023-09-19T00:25:17;10.40;;;2.27;;
5553;SDS011;2800;49.528;8.666;2023-09-19T00:27:42;6.00;;;2.10;;
5553;SDS011;2800;49.528;8.666;2023-09-19T00:30:10;9.70;;;2.00;;
5553;SDS011;2800;49.528;8.666;2023-09-19T00:32:44;5.77;;;1.90;;
5553;SDS011;2800;49.528;8.666;2023-09-19T00:35:12;8.40;;;2.20;;
5553;SDS011;2800;49.528;8.666;2023-09-19T00:37:39;6.77;;;2.00;;
5553;SDS011;2800;49.528;8.666;2023-09-19T00:40:05;6.70;;;1.83;;
5553;SDS011;2800;49.528;8.666;2023-09-19T00:42:34;6.10;;;1.93;;
5553;SDS011;2800;49.528;8.666;2023-09-19T00:45:03;6.70;;;2.03;;
5553;SDS011;2800;49.528;8.666;2023-09-19T00:47:30;5.90;;;2.13;;
5553;SDS011;2800;49.528;8.666;2023-09-19T00:49:56;5.50;;;2.03;;
5553;SDS011;2800;49.528;8.666;2023-09-19T00:52:21;6.50;;;2.27;;
5553;SDS011;2800;49.528;8.666;2023-09-19T00:54:48;10.77;;;2.20;;
5553;SDS011;2800;49.528;8.666;2023-09-19T00:57:14;6.00;;;1.90;;
5553;SDS011;2800;49.528;8.666;2023-09-19T00:59:44;6.73;;;2.50;;
5553;SDS011;2800;49.528;8.666;2023-09-19T01:02:13;5.77;;;2.20;;
5553;SDS011;2800;49.528;8.666;2023-09-19T01:04:39;5.03;;;2.00;;
5553;SDS011;2800;49.528;8.666;2023-09-19T01:07:05;7.37;;;2.47;;
5553;SDS011;2800;49.528;8.666;2023-09-19T01:09:33;5.83;;;2.20;;
5553;SDS011;2800;49.528;8.666;2023-09-19T01:12:00;6.13;;;2.03;;
5553;SDS011;2800;49.528;8.666;2023-09-19T01:18:21;8.80;;;2.30;;
5553;SDS011;2800;49.528;8.666;2023-09-19T01:20:57;6.17;;;2.23;;
5553;SDS011;2800;49.528;8.666;2023-09-19T01:31:44;6.60;;;2.33;;
5553;SDS011;2800;49.528;8.666;2023-09-19T01:34:10;6.87;;;2.60;;
5553;SDS011;2800;49.528;8.666;2023-09-19T01:36:36;9.53;;;2.60;;
5553;SDS011;2800;49.528;8.666;2023-09-19T01:39:04;9.43;;;2.40;;
5553;SDS011;2800;49.528;8.666;2023-09-19T01:44:36;7.40;;;2.73;;
5553;SDS011;2800;49.528;8.666;2023-09-19T01:47:04;6.70;;;2.40;;
5553;SDS011;2800;49.528;8.666;2023-09-19T01:49:44;7.00;;;2.40;;
5553;SDS011;2800;49.528;8.666;2023-09-19T01:52:30;5.10;;;2.57;;
5553;SDS011;2800;49.528;8.666;2023-09-19T01:55:04;8.70;;;2.60;;
5553;SDS011;2800;49.528;8.666;2023-09-19T01:57:34;6.83;;;2.50;;
5553;SDS011;2800;49.528;8.666;2023-09-19T02:00:21;7.20;;;2.40;;
5553;SDS011;2800;49.528;8.666;2023-09-19T02:02:48;5.90;;;2.53;;
5553;SDS011;2800;49.528;8.666;2023-09-19T02:05:21;6.90;;;2.80;;
5553;SDS011;2800;49.528;8.666;2023-09-19T02:07:49;8.97;;;2.60;;
5553;SDS011;2800;49.528;8.666;2023-09-19T02:10:15;8.67;;;2.83;;
5553;SDS011;2800;49.528;8.666;2023-09-19T02:12:42;7.07;;;2.63;;
5553;SDS011;2800;49.528;8.666;2023-09-19T02:15:07;7.87;;;2.60;;
5553;SDS011;2800;49.528;8.666;2023-09-19T02:17:34;7.00;;;2.93;;
5553;SDS011;2800;49.528;8.666;2023-09-19T02:19:59;8.13;;;2.60;;
5553;SDS011;2800;49.528;8.666;2023-09-19T02:22:25;11.13;;;2.47;;
5553;SDS011;2800;49.528;8.666;2023-09-19T02:24:52;6.90;;;2.77;;
5553;SDS011;2800;49.528;8.666;2023-09-19T02:27:18;8.07;;;2.60;;
5553;SDS011;2800;49.528;8.666;2023-09-19T02:29:44;9.27;;;2.40;;
5553;SDS011;2800;49.528;8.666;2023-09-19T02:32:10;7.17;;;2.80;;
5553;SDS011;2800;49.528;8.666;2023-09-19T02:34:35;8.97;;;2.90;;
5553;SDS011;2800;49.528;8.666;2023-09-19T02:37:04;10.63;;;2.80;;
5553;SDS011;2800;49.528;8.666;2023-09-19T02:39:31;7.40;;;2.73;;
5553;SDS011;2800;49.528;8.666;2023-09-19T02:41:58;8.70;;;2.60;;
5553;SDS011;2800;49.528;8.666;2023-09-19T02:44:23;6.77;;;2.70;;
5553;SDS011;2800;49.528;8.666;2023-09-19T02:46:49;7.30;;;2.53;;
5553;SDS011;2800;49.528;8.666;2023-09-19T02:49:15;7.40;;;2.90;;
5553;SDS011;2800;49.528;8.666;2023-09-19T02:51:42;7.23;;;3.00;;
5553;SDS011;2800;49.528;8.666;2023-09-19T02:54:08;6.77;;;2.60;;
5553;SDS011;2800;49.528;8.666;2023-09-19T02:56:34;7.43;;;2.80;;
5553;SDS011;2800;49.528;8.666;2023-09-19T02:59:01;5.57;;;2.60;;
5553;SDS011;2800;49.528;8.666;2023-09-19T03:01:27;7.13;;;2.47;;
5553;SDS011;2800;49.528;8.666;2023-09-19T03:03:53;9.10;;;2.97;;
5553;SDS011;2800;49.528;8.666;2023-09-19T03:06:19;7.50;;;2.53;;
5553;SDS011;2800;49.528;8.666;2023-09-19T03:08:46;9.00;;;2.67;;
5553;SDS011;2800;49.528;8.666;2023-09-19T03:11:13;7.57;;;2.63;;
5553;SDS011;2800;49.528;8.666;2023-09-19T03:13:41;7.53;;;2.60;;
5553;SDS011;2800;49.528;8.666;2023-09-19T03:16:07;7.00;;;2.67;;
5553;SDS011;2800;49.528;8.666;2023-09-19T03:18:36;6.00;;;2.10;;
5553;SDS011;2800;49.528;8.666;2023-09-19T03:21:02;8.60;;;2.77;;
5553;SDS011;2800;49.528;8.666;2023-09-19T03:23:27;7.13;;;2.80;;
5553;SDS011;2800;49.528;8.666;2023-09-19T03:25:54;6.43;;;2.40;;
5553;SDS011;2800;49.528;8.666;2023-09-19T03:28:20;6.53;;;2.80;;
5553;SDS011;2800;49.528;8.666;2023-09-19T03:31:08;6.53;;;2.77;;
5553;SDS011;2800;49.528;8.666;2023-09-19T03:33:33;11.90;;;2.97;;
5553;SDS011;2800;49.528;8.666;2023-09-19T03:35:59;7.87;;;2.87;;
5553;SDS011;2800;49.528;8.666;2023-09-19T03:38:25;5.83;;;2.40;;
5553;SDS011;2800;49.528;8.666;2023-09-19T03:40:52;6.97;;;2.87;;
5553;SDS011;2800;49.528;8.666;2023-09-19T03:43:17;5.97;;;2.63;;
5553;SDS011;2800;49.528;8.666;2023-09-19T03:45:44;9.80;;;2.83;;
5553;SDS011;2800;49.528;8.666;2023-09-19T03:48:11;7.93;;;2.70;;
5553;SDS011;2800;49.528;8.666;2023-09-19T03:50:37;8.33;;;2.77;;
5553;SDS011;2800;49.528;8.666;2023-09-19T03:53:03;10.80;;;2.77;;
5553;SDS011;2800;49.528;8.666;2023-09-19T03:55:29;6.10;;;2.60;;
5553;SDS011;2800;49.528;8.666;2023-09-19T03:57:57;8.70;;;2.63;;
5553;SDS011;2800;49.528;8.666;2023-09-19T04:00:23;8.00;;;2.77;;
5553;SDS011;2800;49.528;8.666;2023-09-19T04:02:51;6.57;;;2.60;;
5553;SDS011;2800;49.528;8.666;2023-09-19T04:05:17;6.57;;;2.60;;
5553;SDS011;2800;49.528;8.666;2023-09-19T04:07:43;10.13;;;2.83;;
5553;SDS011;2800;49.528;8.666;2023-09-19T04:10:09;9.20;;;2.80;;
5553;SDS011;2800;49.528;8.666;2023-09-19T04:12:36;7.00;;;2.90;;
5553;SDS011;2800;49.528;8.666;2023-09-19T04:15:02;7.20;;;2.77;;
5553;SDS011;2800;49.528;8.666;2023-09-19T04:17:28;12.30;;;3.30;;
5553;SDS011;2800;49.528;8.666;2023-09-19T04:19:54;9.00;;;2.87;;
5553;SDS011;2800;49.528;8.666;2023-09-19T04:22:19;8.43;;;3.03;;
5553;SDS011;2800;49.528;8.666;2023-09-19T04:24:45;10.47;;;3.40;;
5553;SDS011;2800;49.528;8.666;2023-09-19T04:27:10;6.13;;;2.90;;
5553;SDS011;2800;49.528;8.666;2023-09-19T04:29:39;7.67;;;3.00;;
5553;SDS011;2800;49.528;8.666;2023-09-19T04:32:06;10.77;;;3.10;;
5553;SDS011;2800;49.528;8.666;2023-09-19T04:34:32;8.70;;;3.27;;
5553;SDS011;2800;49.528;8.666;2023-09-19T04:36:59;7.20;;;3.03;;
5553;SDS011;2800;49.528;8.666;2023-09-19T04:39:25;6.10;;;3.00;;
5553;SDS011;2800;49.528;8.666;2023-09-19T04:41:51;9.87;;;3.07;;
5553;SDS011;2800;49.528;8.666;2023-09-19T04:44:18;7.47;;;3.10;;
5553;SDS011;2800;49.528;8.666;2023-09-19T04:46:43;12.80;;;3.50;;
5553;SDS011;2800;49.528;8.666;2023-09-19T04:49:10;8.30;;;3.13;;
5553;SDS011;2800;49.528;8.666;2023-09-19T04:51:36;9.00;;;3.50;;
5553;SDS011;2800;49.528;8.666;2023-09-19T04:54:01;7.93;;;3.00;;
5553;SDS011;2800;49.528;8.666;2023-09-19T04:56:27;7.93;;;3.17;;
5553;SDS011;2800;49.528;8.666;2023-09-19T04:58:53;7.47;;;2.80;;
5553;SDS011;2800;49.528;8.666;2023-09-19T05:01:19;9.30;;;3.40;;
5553;SDS011;2800;49.528;8.666;2023-09-19T05:03:48;7.17;;;3.20;;
5553;SDS011;2800;49.528;8.666;2023-09-19T05:06:17;7.10;;;3.10;;
5553;SDS011;2800;49.528;8.666;2023-09-19T05:08:46;7.87;;;3.50;;
5553;SDS011;2800;49.528;8.666;2023-09-19T05:11:15;9.10;;;3.60;;
5553;SDS011;2800;49.528;8.666;2023-09-19T05:13:46;7.17;;;3.00;;
5553;SDS011;2800;49.528;8.666;2023-09-19T05:16:12;7.37;;;3.17;;
5553;SDS011;2800;49.528;8.666;2023-09-19T05:18:37;8.90;;;3.70;;
5553;SDS011;2800;49.528;8.666;2023-09-19T05:21:03;10.83;;;3.53;;
5553;SDS011;2800;49.528;8.666;2023-09-19T05:23:28;9.07;;;3.10;;
5553;SDS011;2800;49.528;8.666;2023-09-19T05:25:54;9.60;;;3.60;;
5553;SDS011;2800;49.528;8.666;2023-09-19T05:28:21;10.67;;;3.50;;
5553;SDS011;2800;49.528;8.666;2023-09-19T05:30:47;11.40;;;4.20;;
5553;SDS011;2800;49.528;8.666;2023-09-19T05:33:14;9.77;;;3.00;;
5553;SDS011;2800;49.528;8.666;2023-09-19T05:35:39;7.80;;;3.37;;
5553;SDS011;2800;49.528;8.666;2023-09-19T05:38:06;10.00;;;3.10;;
5553;SDS011;2800;49.528;8.666;2023-09-19T05:40:34;9.97;;;3.20;;
5553;SDS011;2800;49.528;8.666;2023-09-19T05:43:00;7.70;;;2.93;;
5553;SDS011;2800;49.528;8.666;2023-09-19T05:45:28;9.10;;;3.33;;
5553;SDS011;2800;49.528;8.666;2023-09-19T05:47:54;14.57;;;3.80;;
5553;SDS011;2800;49.528;8.666;2023-09-19T05:50:26;8.47;;;2.80;;
5553;SDS011;2800;49.528;8.666;2023-09-19T05:52:52;10.23;;;3.20;;
5553;SDS011;2800;49.528;8.666;2023-09-19T05:55:18;14.53;;;3.73;;
5553;SDS011;2800;49.528;8.666;2023-09-19T05:57:43;8.83;;;3.40;;
5553;SDS011;2800;49.528;8.666;2023-09-19T06:00:21;10.37;;;3.47;;
5553;SDS011;2800;49.528;8.666;2023-09-19T06:02:51;7.63;;;3.13;;
5553;SDS011;2800;49.528;8.666;2023-09-19T06:05:17;9.07;;;3.17;;
5553;SDS011;2800;49.528;8.666;2023-09-19T06:07:43;12.60;;;3.83;;
5553;SDS011;2800;49.528;8.666;2023-09-19T06:10:09;12.70;;;3.37;;
5553;SDS011;2800;49.528;8.666;2023-09-19T06:12:41;11.20;;;3.30;;
5553;SDS011;2800;49.528;8.666;2023-09-19T06:15:11;14.00;;;3.73;;
5553;SDS011;2800;49.528;8.666;2023-09-19T06:17:51;15.07;;;3.27;;
5553;SDS011;2800;49.528;8.666;2023-09-19T06:20:21;11.33;;;3.20;;
5553;SDS011;2800;49.528;8.666;2023-09-19T06:22:48;8.30;;;3.50;;
5553;SDS011;2800;49.528;8.666;2023-09-19T06:25:14;8.70;;;2.97;;
5553;SDS011;2800;49.528;8.666;2023-09-19T06:27:50;10.40;;;3.47;;
5553;SDS011;2800;49.528;8.666;2023-09-19T06:30:18;9.40;;;3.60;;
5553;SDS011;2800;49.528;8.666;2023-09-19T06:32:44;7.83;;;2.97;;
5553;SDS011;2800;49.528;8.666;2023-09-19T06:35:11;9.20;;;3.53;;
5553;SDS011;2800;49.528;8.666;2023-09-19T06:37:37;9.53;;;3.57;;
5553;SDS011;2800;49.528;8.666;2023-09-19T06:42:40;14.67;;;3.23;;
5553;SDS011;2800;49.528;8.666;2023-09-19T06:45:07;8.13;;;3.07;;
5553;SDS011;2800;49.528;8.666;2023-09-19T06:47:33;10.13;;;3.10;;
5553;SDS011;2800;49.528;8.666;2023-09-19T06:49:59;10.13;;;3.13;;
5553;SDS011;2800;49.528;8.666;2023-09-19T06:52:27;8.70;;;3.33;;
5553;SDS011;2800;49.528;8.666;2023-09-19T06:54:53;8.63;;;3.27;;
5553;SDS011;2800;49.528;8.666;2023-09-19T06:57:18;8.80;;;3.77;;
5553;SDS011;2800;49.528;8.666;2023-09-19T06:59:44;10.10;;;3.40;;
5553;SDS011;2800;49.528;8.666;2023-09-19T07:02:10;7.13;;;3.13;;
5553;SDS011;2800;49.528;8.666;2023-09-19T07:04:36;10.40;;;3.50;;
5553;SDS011;2800;49.528;8.666;2023-09-19T07:07:01;12.17;;;3.10;;
5553;SDS011;2800;49.528;8.666;2023-09-19T07:09:27;8.97;;;2.87;;
5553;SDS011;2800;49.528;8.666;2023-09-19T07:11:53;9.17;;;2.90;;
5553;SDS011;2800;49.528;8.666;2023-09-19T07:14:19;11.73;;;3.40;;
5553;SDS011;2800;49.528;8.666;2023-09-19T07:16:44;10.53;;;3.40;;
5553;SDS011;2800;49.528;8.666;2023-09-19T07:19:10;15.17;;;3.60;;
5553;SDS011;2800;49.528;8.666;2023-09-19T07:21:36;8.37;;;2.93;;
5553;SDS011;2800;49.528;8.666;2023-09-19T07:24:03;10.87;;;3.10;;
5553;SDS011;2800;49.528;8.666;2023-09-19T07:26:29;10.77;;;3.20;;
5553;SDS011;2800;49.528;8.666;2023-09-19T07:28:56;12.23;;;3.10;;
5553;SDS011;2800;49.528;8.666;2023-09-19T07:31:22;8.53;;;3.07;;
5553;SDS011;2800;49.528;8.666;2023-09-19T07:33:48;7.40;;;3.10;;
5553;SDS011;2800;49.528;8.666;2023-09-19T07:36:14;9.40;;;3.00;;
5553;SDS011;2800;49.528;8.666;2023-09-19T07:38:40;9.50;;;3.50;;
5553;SDS011;2800;49.528;8.666;2023-09-19T07:41:06;10.60;;;3.30;;
5553;SDS011;2800;49.528;8.666;2023-09-19T07:43:34;8.67;;;3.00;;
5553;SDS011;2800;49.528;8.666;2023-09-19T07:46:06;8.83;;;3.13;;
5553;SDS011;2800;49.528;8.666;2023-09-19T07:48:36;10.33;;;3.00;;
5553;SDS011;2800;49.528;8.666;2023-09-19T07:51:06;11.00;;;2.83;;
5553;SDS011;2800;49.528;8.666;2023-09-19T07:53:33;9.80;;;3.17;;
5553;SDS011;2800;49.528;8.666;2023-09-19T07:56:05;6.90;;;3.03;;
5553;SDS011;2800;49.528;8.666;2023-09-19T07:58:32;9.17;;;3.20;;
5553;SDS011;2800;49.528;8.666;2023-09-19T08:01:05;8.53;;;2.97;;
5553;SDS011;2800;49.528;8.666;2023-09-19T08:03:32;12.07;;;3.00;;
5553;SDS011;2800;49.528;8.666;2023-09-19T08:05:58;10.23;;;3.27;;
5553;SDS011;2800;49.528;8.666;2023-09-19T08:08:25;6.77;;;2.80;;
5553;SDS011;2800;49.528;8.666;2023-09-19T08:10:55;9.80;;;3.03;;
5553;SDS011;2800;49.528;8.666;2023-09-19T08:13:22;10.07;;;2.50;;
5553;SDS011;2800;49.528;8.666;2023-09-19T08:15:51;9.73;;;3.00;;
5553;SDS011;2800;49.528;8.666;2023-09-19T08:18:19;8.87;;;2.80;;
5553;SDS011;2800;49.528;8.666;2023-09-19T08:20:50;8.70;;;3.07;;
5553;SDS011;2800;49.528;8.666;2023-09-19T08:23:17;9.77;;;3.40;;
5553;SDS011;2800;49.528;8.666;2023-09-19T08:25:45;7.13;;;2.47;;
5553;SDS011;2800;49.528;8.666;2023-09-19T08:28:11;7.87;;;2.50;;
5553;SDS011;2800;49.528;8.666;2023-09-19T08:30:37;9.40;;;2.53;;
5553;SDS011;2800;49.528;8.666;2023-09-19T08:33:05;8.43;;;2.57;;
5553;SDS011;2800;49.528;8.666;2023-09-19T08:35:31;12.37;;;3.00;;
5553;SDS011;2800;49.528;8.666;2023-09-19T08:37:57;6.73;;;2.67;;
5553;SDS011;2800;49.528;8.666;2023-09-19T08:40:22;6.37;;;2.50;;
5553;SDS011;2800;49.528;8.666;2023-09-19T08:45:19;7.97;;;2.93;;
5553;SDS011;2800;49.528;8.666;2023-09-19T08:47:50;6.33;;;2.40;;
5553;SDS011;2800;49.528;8.666;2023-09-19T08:50:42;14.77;;;2.70;;
5553;SDS011;2800;49.528;8.666;2023-09-19T08:53:15;7.53;;;3.17;;
5553;SDS011;2800;49.528;8.666;2023-09-19T08:55:47;8.73;;;2.90;;
5553;SDS011;2800;49.528;8.666;2023-09-19T08:58:16;7.93;;;2.80;;
5553;SDS011;2800;49.528;8.666;2023-09-19T09:00:44;9.47;;;2.87;;
5553;SDS011;2800;49.528;8.666;2023-09-19T09:03:14;9.03;;;2.87;;
5553;SDS011;2800;49.528;8.666;2023-09-19T09:05:41;6.57;;;2.67;;
5553;SDS011;2800;49.528;8.666;2023-09-19T09:08:11;8.73;;;3.33;;
5553;SDS011;2800;49.528;8.666;2023-09-19T09:10:37;6.73;;;2.87;;
5553;SDS011;2800;49.528;8.666;2023-09-19T09:13:05;8.30;;;3.20;;
5553;SDS011;2800;49.528;8.666;2023-09-19T09:15:31;8.67;;;2.93;;
5553;SDS011;2800;49.528;8.666;2023-09-19T09:18:01;7.30;;;3.10;;
5553;SDS011;2800;49.528;8.666;2023-09-19T09:20:29;7.30;;;3.23;;
5553;SDS011;2800;49.528;8.666;2023-09-19T09:22:55;11.60;;;2.93;;
5553;SDS011;2800;49.528;8.666;2023-09-19T09:25:27;8.67;;;3.17;;
5553;SDS011;2800;49.528;8.666;2023-09-19T09:28:21;8.60;;;3.00;;
5553;SDS011;2800;49.528;8.666;2023-09-19T09:30:48;6.63;;;2.67;;
5553;SDS011;2800;49.528;8.666;2023-09-19T09:33:15;8.97;;;3.30;;
5553;SDS011;2800;49.528;8.666;2023-09-19T09:38:16;8.23;;;2.40;;
5553;SDS011;2800;49.528;8.666;2023-09-19T09:40:49;8.43;;;2.80;;
5553;SDS011;2800;49.528;8.666;2023-09-19T09:43:35;7.07;;;2.80;;
5553;SDS011;2800;49.528;8.666;2023-09-19T09:48:47;8.63;;;2.70;;
5553;SDS011;2800;49.528;8.666;2023-09-19T09:51:39;9.40;;;2.50;;
5553;SDS011;2800;49.528;8.666;2023-09-19T09:54:10;6.10;;;2.77;;
5553;SDS011;2800;49.528;8.666;2023-09-19T09:56:56;12.17;;;3.07;;
5553;SDS011;2800;49.528;8.666;2023-09-19T10:02:18;6.53;;;2.83;;
5553;SDS011;2800;49.528;8.666;2023-09-19T10:04:49;14.00;;;3.20;;
5553;SDS011;2800;49.528;8.666;2023-09-19T10:07:44;6.87;;;2.60;;
5553;SDS011;2800;49.528;8.666;2023-09-19T10:10:28;8.87;;;3.23;;
5553;SDS011;2800;49.528;8.666;2023-09-19T10:13:08;11.63;;;3.20;;
5553;SDS011;2800;49.528;8.666;2023-09-19T10:15:38;10.00;;;3.17;;
5553;SDS011;2800;49.528;8.666;2023-09-19T10:18:11;6.30;;;2.83;;
5553;SDS011;2800;49.528;8.666;2023-09-19T10:20:43;8.33;;;3.00;;
5553;SDS011;2800;49.528;8.666;2023-09-19T10:23:11;6.00;;;2.60;;
5553;SDS011;2800;49.528;8.666;2023-09-19T10:25:43;6.27;;;2.70;;
5553;SDS011;2800;49.528;8.666;2023-09-19T10:28:13;10.07;;;3.00;;
5553;SDS011;2800;49.528;8.666;2023-09-19T10:30:42;9.30;;;2.77;;
5553;SDS011;2800;49.528;8.666;2023-09-19T10:33:10;7.20;;;2.67;;
5553;SDS011;2800;49.528;8.666;2023-09-19T10:35:55;6.60;;;2.50;;
5553;SDS011;2800;49.528;8.666;2023-09-19T10:38:25;9.10;;;2.40;;
5553;SDS011;2800;49.528;8.666;2023-09-19T10:40:57;7.43;;;2.50;;
5553;SDS011;2800;49.528;8.666;2023-09-19T10:43:25;9.73;;;2.80;;
5553;SDS011;2800;49.528;8.666;2023-09-19T10:45:55;11.00;;;2.70;;
5553;SDS011;2800;49.528;8.666;2023-09-19T10:48:25;7.77;;;2.30;;
5553;SDS011;2800;49.528;8.666;2023-09-19T10:53:26;6.70;;;2.00;;
5553;SDS011;2800;49.528;8.666;2023-09-19T10:55:55;10.73;;;2.50;;
5553;SDS011;2800;49.528;8.666;2023-09-19T10:58:25;8.53;;;2.40;;
5553;SDS011;2800;49.528;8.666;2023-09-19T11:00:54;6.00;;;2.30;;
5553;SDS011;2800;49.528;8.666;2023-09-19T11:03:21;6.67;;;2.57;;
5553;SDS011;2800;49.528;8.666;2023-09-19T11:30:31;5.57;;;2.10;;
5553;SDS011;2800;49.528;8.666;2023-09-19T11:33:16;6.10;;;2.50;;
5553;SDS011;2800;49.528;8.666;2023-09-19T11:46:25;5.33;;;2.20;;
5553;SDS011;2800;49.528;8.666;2023-09-19T11:48:53;5.77;;;2.30;;
5553;SDS011;2800;49.528;8.666;2023-09-19T11:51:20;6.50;;;2.17;;
5553;SDS011;2800;49.528;8.666;2023-09-19T11:54:01;10.83;;;2.27;;
5553;SDS011;2800;49.528;8.666;2023-09-19T11:56:28;6.43;;;2.20;;
5553;SDS011;2800;49.528;8.666;2023-09-19T11:58:56;10.80;;;2.87;;
5553;SDS011;2800;49.528;8.666;2023-09-19T12:01:23;7.23;;;2.63;;
5553;SDS011;2800;49.528;8.666;2023-09-19T12:03:54;5.47;;;2.20;;
5553;SDS011;2800;49.528;8.666;2023-09-19T12:06:27;7.10;;;2.30;;
5553;SDS011;2800;49.528;8.666;2023-09-19T12:08:57;7.23;;;2.20;;
5553;SDS011;2800;49.528;8.666;2023-09-19T12:11:30;6.20;;;2.37;;
5553;SDS011;2800;49.528;8.666;2023-09-19T12:14:00;6.13;;;2.03;;
5553;SDS011;2800;49.528;8.666;2023-09-19T12:16:27;14.90;;;2.60;;
5553;SDS011;2800;49.528;8.666;2023-09-19T12:18:56;6.50;;;2.13;;
5553;SDS011;2800;49.528;8.666;2023-09-19T12:24:05;6.47;;;2.40;;
5553;SDS011;2800;49.528;8.666;2023-09-19T12:26:41;5.60;;;2.30;;
5553;SDS011;2800;49.528;8.666;2023-09-19T12:29:15;7.53;;;2.47;;
5553;SDS011;2800;49.528;8.666;2023-09-19T12:31:48;6.03;;;2.33;;
5553;SDS011;2800;49.528;8.666;2023-09-19T12:37:03;8.13;;;2.27;;
5553;SDS011;2800;49.528;8.666;2023-09-19T12:39:39;7.77;;;2.30;;
5553;SDS011;2800;49.528;8.666;2023-09-19T12:42:14;7.70;;;2.30;;
5553;SDS011;2800;49.528;8.666;2023-09-19T12:44:44;5.47;;;2.20;;
5553;SDS011;2800;49.528;8.666;2023-09-19T12:47:14;6.60;;;2.00;;
5553;SDS011;2800;49.528;8.666;2023-09-19T12:52:48;7.57;;;2.23;;
5553;SDS011;2800;49.528;8.666;2023-09-19T12:55:21;9.00;;;2.10;;
5553;SDS011;2800;49.528;8.666;2023-09-19T13:00:35;9.87;;;2.27;;
5553;SDS011;2800;49.528;8.666;2023-09-19T13:05:47;6.60;;;2.50;;
5553;SDS011;2800;49.528;8.666;2023-09-19T13:08:20;5.10;;;2.10;;
5553;SDS011;2800;49.528;8.666;2023-09-19T13:11:04;7.47;;;2.67;;
5553;SDS011;2800;49.528;8.666;2023-09-19T13:13:43;6.00;;;2.27;;
5553;SDS011;2800;49.528;8.666;2023-09-19T13:16:13;6.77;;;2.27;;
5553;SDS011;2800;49.528;8.666;2023-09-19T13:18:58;4.97;;;1.87;;
5553;SDS011;2800;49.528;8.666;2023-09-19T13:21:27;5.90;;;2.50;;
5553;SDS011;2800;49.528;8.666;2023-09-19T13:24:20;6.00;;;2.20;;
5553;SDS011;2800;49.528;8.666;2023-09-19T13:26:55;7.53;;;2.30;;
5553;SDS011;2800;49.528;8.666;2023-09-19T13:29:21;5.83;;;2.30;;
5553;SDS011;2800;49.528;8.666;2023-09-19T13:31:51;4.63;;;2.00;;
5553;SDS011;2800;49.528;8.666;2023-09-19T13:34:20;7.97;;;2.30;;
5553;SDS011;2800;49.528;8.666;2023-09-19T13:36:46;5.63;;;2.10;;
5553;SDS011;2800;49.528;8.666;2023-09-19T13:39:15;5.70;;;2.20;;
5553;SDS011;2800;49.528;8.666;2023-09-19T13:41:43;7.13;;;2.07;;
5553;SDS011;2800;49.528;8.666;2023-09-19T13:44:10;8.10;;;1.97;;
5553;SDS011;2800;49.528;8.666;2023-09-19T13:46:35;7.33;;;2.60;;
5553;SDS011;2800;49.528;8.666;2023-09-19T13:49:02;4.77;;;2.00;;
5553;SDS011;2800;49.528;8.666;2023-09-19T13:51:30;4.87;;;2.00;;
5553;SDS011;2800;49.528;8.666;2023-09-19T13:53:56;5.93;;;2.30;;
5553;SDS011;2800;49.528;8.666;2023-09-19T13:56:22;5.87;;;1.90;;
5553;SDS011;2800;49.528;8.666;2023-09-19T13:58:49;5.27;;;2.07;;
5553;SDS011;2800;49.528;8.666;2023-09-19T14:01:14;8.63;;;2.73;;
5553;SDS011;2800;49.528;8.666;2023-09-19T14:03:40;6.57;;;2.20;;
5553;SDS011;2800;49.528;8.666;2023-09-19T14:06:12;8.77;;;2.53;;
5553;SDS011;2800;49.528;8.666;2023-09-19T14:08:38;6.03;;;2.50;;
5553;SDS011;2800;49.528;8.666;2023-09-19T14:11:07;7.10;;;2.37;;
5553;SDS011;2800;49.528;8.666;2023-09-19T14:13:33;8.50;;;2.20;;
5553;SDS011;2800;49.528;8.666;2023-09-19T14:16:05;5.50;;;2.20;;
5553;SDS011;2800;49.528;8.666;2023-09-19T14:18:31;5.80;;;2.10;;
5553;SDS011;2800;49.528;8.666;2023-09-19T14:20:57;5.97;;;2.50;;
5553;SDS011;2800;49.528;8.666;2023-09-19T14:23:23;5.00;;;2.00;;
5553;SDS011;2800;49.528;8.666;2023-09-19T14:25:50;5.50;;;2.00;;
5553;SDS011;2800;49.528;8.666;2023-09-19T14:28:16;5.20;;;2.20;;
5553;SDS011;2800;49.528;8.666;2023-09-19T14:30:43;5.90;;;2.33;;
5553;SDS011;2800;49.528;8.666;2023-09-19T14:33:08;7.70;;;2.10;;
5553;SDS011;2800;49.528;8.666;2023-09-19T14:35:36;6.73;;;2.30;;
5553;SDS011;2800;49.528;8.666;2023-09-19T14:38:02;6.53;;;1.87;;
5553;SDS011;2800;49.528;8.666;2023-09-19T14:40:28;6.90;;;1.80;;
5553;SDS011;2800;49.528;8.666;2023-09-19T14:42:53;7.47;;;2.50;;
5553;SDS011;2800;49.528;8.666;2023-09-19T14:45:19;7.30;;;2.40;;
5553;SDS011;2800;49.528;8.666;2023-09-19T14:47:48;7.27;;;2.20;;
5553;SDS011;2800;49.528;8.666;2023-09-19T14:50:17;8.27;;;2.40;;
5553;SDS011;2800;49.528;8.666;2023-09-19T14:52:43;6.57;;;2.17;;
5553;SDS011;2800;49.528;8.666;2023-09-19T14:55:09;7.73;;;2.37;;
5553;SDS011;2800;49.528;8.666;2023-09-19T14:57:39;7.63;;;2.20;;
5553;SDS011;2800;49.528;8.666;2023-09-19T15:00:05;6.00;;;2.00;;
5553;SDS011;2800;49.528;8.666;2023-09-19T15:02:36;4.70;;;1.70;;
5553;SDS011;2800;49.528;8.666;2023-09-19T15:05:02;15.20;;;2.03;;
5553;SDS011;2800;49.528;8.666;2023-09-19T15:07:28;7.30;;;2.67;;
5553;SDS011;2800;49.528;8.666;2023-09-19T15:09:54;4.83;;;2.03;;
5553;SDS011;2800;49.528;8.666;2023-09-19T15:12:19;5.57;;;1.90;;
5553;SDS011;2800;49.528;8.666;2023-09-19T15:14:45;6.67;;;1.90;;
5553;SDS011;2800;49.528;8.666;2023-09-19T15:17:10;7.80;;;2.10;;
5553;SDS011;2800;49.528;8.666;2023-09-19T15:19:36;4.87;;;2.00;;
5553;SDS011;2800;49.528;8.666;2023-09-19T15:22:02;6.27;;;2.00;;
5553;SDS011;2800;49.528;8.666;2023-09-19T15:24:28;7.40;;;1.80;;
5553;SDS011;2800;49.528;8.666;2023-09-19T15:26:54;4.53;;;1.90;;
5553;SDS011;2800;49.528;8.666;2023-09-19T15:29:20;8.60;;;2.03;;
5553;SDS011;2800;49.528;8.666;2023-09-19T15:31:46;8.47;;;2.00;;
5553;SDS011;2800;49.528;8.666;2023-09-19T15:34:11;5.10;;;1.90;;
5553;SDS011;2800;49.528;8.666;2023-09-19T15:36:40;5.13;;;2.07;;
5553;SDS011;2800;49.528;8.666;2023-09-19T15:39:07;8.97;;;2.10;;
5553;SDS011;2800;49.528;8.666;2023-09-19T15:41:36;7.70;;;1.90;;
5553;SDS011;2800;49.528;8.666;2023-09-19T15:44:03;4.20;;;1.77;;
5553;SDS011;2800;49.528;8.666;2023-09-19T15:46:30;5.40;;;2.17;;
5553;SDS011;2800;49.528;8.666;2023-09-19T15:49:00;9.50;;;1.97;;
5553;SDS011;2800;49.528;8.666;2023-09-19T15:51:26;5.03;;;1.70;;
5553;SDS011;2800;49.528;8.666;2023-09-19T15:53:52;7.63;;;2.23;;
5553;SDS011;2800;49.528;8.666;2023-09-19T15:56:21;6.43;;;2.10;;
5553;SDS011;2800;49.528;8.666;2023-09-19T15:58:48;5.10;;;2.00;;
5553;SDS011;2800;49.528;8.666;2023-09-19T16:01:14;7.73;;;2.03;;
5553;SDS011;2800;49.528;8.666;2023-09-19T16:03:50;9.57;;;2.00;;
5553;SDS011;2800;49.528;8.666;2023-09-19T16:06:18;4.80;;;1.80;;
5553;SDS011;2800;49.528;8.666;2023-09-19T16:08:47;5.97;;;2.07;;
5553;SDS011;2800;49.528;8.666;2023-09-19T16:11:13;7.50;;;2.23;;
5553;SDS011;2800;49.528;8.666;2023-09-19T16:13:39;6.60;;;2.13;;
5553;SDS011;2800;49.528;8.666;2023-09-19T16:16:07;5.83;;;2.47;;
5553;SDS011;2800;49.528;8.666;2023-09-19T16:18:45;6.27;;;2.10;;
5553;SDS011;2800;49.528;8.666;2023-09-19T16:21:12;7.80;;;2.27;;
5553;SDS011;2800;49.528;8.666;2023-09-19T16:23:38;7.40;;;2.17;;
5553;SDS011;2800;49.528;8.666;2023-09-19T16:26:04;8.43;;;1.90;;
5553;SDS011;2800;49.528;8.666;2023-09-19T16:28:34;5.57;;;2.10;;
5553;SDS011;2800;49.528;8.666;2023-09-19T16:31:02;5.00;;;1.93;;
5553;SDS011;2800;49.528;8.666;2023-09-19T16:33:29;5.77;;;2.10;;
5553;SDS011;2800;49.528;8.666;2023-09-19T16:35:59;4.63;;;1.80;;
5553;SDS011;2800;49.528;8.666;2023-09-19T16:38:25;7.10;;;2.43;;
5553;SDS011;2800;49.528;8.666;2023-09-19T16:40:52;5.27;;;2.23;;